Kapaa, HI (96746)

11:56 AM HST on February 20, 2017 (GMT -1000)
Kalihiwai Ridge - Top of Halaulani Road | | Change Station
Active Advisory: Small Craft Advisory

Elev 561 ft 22.17 °N, 159.44 °W | Updated 15 seconds ago

Mostly Cloudy
Mostly Cloudy
70.2 °F
Feels Like 76 °F
N
4.0
Wind Variable Wind from ESE
Gusts 4.9 mph

Today
High -- | Low -- °F
--% Chance of Precip.
Yesterday
High -- | Low -- °F
Precip. -- in
Pressure 30.25 in
Visibility 10.0 miles
Clouds Few 3700 ft
Scattered Clouds 5000 ft
Heat Index 76 °F
Dew Point 57 °F
Humidity 62%
Rainfall 0.00 in
Snow Depth Not available.
7:05 AM 6:37 PM
Waning Crescent, 31% visible
METAR PHLI 202153Z 06017KT 10SM FEW037 SCT050 24/14 A3026 RMK AO2 SLP244 T02390139
Pressure 30.25 in
Visibility 10.0 miles
Clouds Few 3700 ft
Scattered Clouds 5000 ft
Heat Index 76 °F
Dew Point 57 °F
Humidity 62%
Rainfall 0.00 in
Snow Depth Not available.
7:05 AM 6:37 PM
Waning Crescent, 31% visible
METAR PHLI 202153Z 06017KT 10SM FEW037 SCT050 24/14 A3026 RMK AO2 SLP244 T02390139

Get Your Daily Forecast Email!

Thanks for signing up!

Be on the lookout for a verification email in your inbox.

You'll start receiving the daily forecast at 8 AM.

×

10-Day Weather Forecast

Almanac

Astronomy

Feb. 20, 2017 Rise Set
Actual Time
Civil Twilight
Nautical Twilight
Astronomical Twilight
Moon
Length of Visible Light
Length of Day
Tomorrow will be .
, % of the Moon is Illuminated

Today's Extremes

State Highs State Lows

Community

WunderPhotos

Upload Photos

1,962,540 photos uploaded!

WunderBlog® & News

Nearby

Air Quality

  Air Quality AQ Index Pollutant
Not available.

Snow Depth

Station Depth Elevation

Earthquake Activity

City Distance Mag. Time & Date
Minimum magnitude displayed is 2.5.

Coastal Water Temperatures

Place Temperature

Stations

Nearby Weather Stations

Station Location Temp. Windchill Dew Point Humidity Wind Precip. Elev Updated Type
                   

Watches & Warnings

Small Craft Advisory
Issued: 3:28 AM HST Feb. 20, 2017 – National Weather Service

... Small Craft Advisory now in effect until 6 PM HST Tuesday...

* winds and seas... northeast to east winds 25 to 30 kt. Seas 8 to
12 ft.

Precautionary/preparedness actions...

A Small Craft Advisory means that winds speeds of 25 to 33 knots
and/or seas 10 feet or greater are expected to produce conditions
hazardous to small craft. Inexperienced mariners... especially
those operating smaller vessels... should avoid navigating in
these conditions.